Vines Loop, Louisiana
Current Conditions -  °F | °C
As of 3:56 AM on Saturday 20 Dec 2014 (Local Time) from KAQV Reporting Station
Overcast Overcast  
Wind Chill: 45°   Ceiling: 400
Heat Index: 48°   Visibility: 8mi
Dew Point: 45°   Wind: 6mph
Humidity: 89%   Direction: 30°NNE
Pressure: 30.13"   Gusts: NA
Location:  31.6945°N, 93.716°W
Report Text: KAQV 200956Z AUTO 03005KT 8SM OVC004 09/07 A3013 RMK AO2 SLP205 T00890072 PNO $
Loading
Personal Weather Stations






























Interactive Weather Map New forecast layout! Learn more

10-Day Weather Forecast

Advertisements
Track Severe Weather on mobile